Time;durP1;ratioP1;P1;durP2;ratioP2;P2;SDS_P1;SDS_P2;PMS_P1;PMS_P2;Temp;Humidity;BMP_temperature;BMP_pressure;BME280_temperature;BME280_humidity;BME280_pressure;Samples;Min_cycle;Max_cycle;Signal;HPM_P1;HPM_P2
2023/11/30 00:01:58;;;;;;;291.83;97.97;;;-6.60;99.90;;;;;;5073304;28;20033;-77
2023/11/30 00:04:23;;;;;;;152.73;58.27;;;-6.60;99.90;;;;;;5072024;28;20062;-78
2023/11/30 00:06:49;;;;;;;135.98;54.35;;;-6.60;99.90;;;;;;5073413;28;20048;-75
2023/11/30 00:09:15;;;;;;;103.40;43.33;;;-6.50;99.90;;;;;;5074618;28;20031;-75
2023/11/30 00:11:40;;;;;;;95.10;39.15;;;-6.50;99.90;;;;;;5073365;28;20040;-76
2023/11/30 00:14:06;;;;;;;89.65;39.72;;;-6.40;99.90;;;;;;5074362;28;20043;-78
2023/11/30 00:16:32;;;;;;;78.82;35.95;;;-6.30;99.90;;;;;;5074339;28;20028;-75
2023/11/30 00:18:58;;;;;;;91.78;39.50;;;-6.20;99.90;;;;;;5073152;28;20526;-78
2023/11/30 00:21:23;;;;;;;69.55;33.15;;;-6.10;99.90;;;;;;5074094;28;20440;-76
2023/11/30 00:23:49;;;;;;;61.63;27.40;;;-6.10;99.90;;;;;;5073466;28;20074;-76
2023/11/30 00:26:15;;;;;;;58.30;27.00;;;-5.90;99.90;;;;;;5073013;28;20017;-78
2023/11/30 00:28:41;;;;;;;61.33;27.30;;;-5.90;99.90;;;;;;5072838;28;20103;-78
2023/11/30 00:31:07;;;;;;;66.82;30.77;;;-5.70;99.90;;;;;;5074012;28;20028;-76
2023/11/30 00:33:33;;;;;;;53.33;25.25;;;-5.70;99.90;;;;;;5072545;28;20110;-78
2023/11/30 00:35:58;;;;;;;64.03;26.98;;;-5.60;99.90;;;;;;5074196;28;20099;-78
2023/11/30 00:38:24;;;;;;;61.10;27.77;;;-5.50;99.90;;;;;;5072712;28;20488;-75
2023/11/30 00:40:50;;;;;;;72.35;32.83;;;-5.50;99.90;;;;;;5072828;28;20119;-78
2023/11/30 00:43:16;;;;;;;69.38;32.65;;;-5.50;99.90;;;;;;5073758;28;20104;-75
2023/11/30 00:45:42;;;;;;;96.65;40.90;;;-5.40;99.90;;;;;;5073862;28;20020;-78
2023/11/30 00:48:07;;;;;;;95.15;39.05;;;-5.40;99.90;;;;;;5072123;28;20025;-78
2023/11/30 00:50:33;;;;;;;63.65;30.45;;;-5.40;99.90;;;;;;5073857;28;20486;-78
2023/11/30 00:52:59;;;;;;;52.20;24.60;;;-5.40;99.90;;;;;;5072032;28;20065;-75
2023/11/30 00:55:24;;;;;;;69.63;30.13;;;-5.30;99.90;;;;;;5073784;28;20028;-78
2023/11/30 00:57:50;;;;;;;48.60;25.10;;;-5.30;99.90;;;;;;5073305;28;20020;-78
2023/11/30 01:00:16;;;;;;;51.97;26.25;;;-5.20;99.90;;;;;;5072300;28;20062;-78
2023/11/30 01:02:41;;;;;;;50.92;24.23;;;-5.20;99.90;;;;;;5073271;28;20486;-76
2023/11/30 01:05:08;;;;;;;46.83;25.08;;;-5.10;99.90;;;;;;5073486;28;20039;-75
2023/11/30 01:07:35;;;;;;;54.95;25.17;;;-5.10;99.90;;;;;;5071997;28;20024;-76
2023/11/30 01:10:00;;;;;;;51.88;24.55;;;-5.10;99.90;;;;;;5072311;28;20074;-78
2023/11/30 01:12:26;;;;;;;51.17;24.98;;;-5.00;99.90;;;;;;5071906;28;20052;-76
2023/11/30 01:14:53;;;;;;;49.22;22.50;;;-5.00;99.90;;;;;;5070157;28;20363;-76
2023/11/30 01:17:19;;;;;;;51.53;22.90;;;-4.90;99.90;;;;;;5072646;28;20021;-76
2023/11/30 01:19:45;;;;;;;55.85;23.75;;;-4.90;99.90;;;;;;5071955;28;20509;-78
2023/11/30 01:22:11;;;;;;;45.67;24.52;;;-4.90;99.90;;;;;;5073088;28;20082;-78
2023/11/30 01:24:37;;;;;;;49.28;23.02;;;-4.90;99.90;;;;;;5071980;28;20043;-78
2023/11/30 01:27:03;;;;;;;56.45;26.08;;;-4.80;99.90;;;;;;5073470;28;20037;-78
2023/11/30 01:29:29;;;;;;;53.75;24.80;;;-4.80;99.90;;;;;;5073179;28;20478;-78
2023/11/30 01:31:55;;;;;;;47.35;25.10;;;-4.80;99.90;;;;;;5073022;28;20040;-78
2023/11/30 01:34:20;;;;;;;47.75;23.98;;;-4.80;99.90;;;;;;5072777;28;20393;-78
2023/11/30 01:36:46;;;;;;;58.10;27.95;;;-4.80;99.90;;;;;;5071697;28;20420;-75
2023/11/30 01:39:14;;;;;;;51.63;24.95;;;-4.80;99.90;;;;;;5072525;28;20071;-78
2023/11/30 01:41:39;;;;;;;49.08;23.70;;;-4.80;99.90;;;;;;5072979;28;20394;-75
2023/11/30 01:44:05;;;;;;;56.72;23.40;;;-4.90;99.90;;;;;;5072581;28;20021;-78
2023/11/30 01:46:32;;;;;;;45.90;22.10;;;-5.00;99.90;;;;;;5071515;28;20036;-78
2023/11/30 01:48:58;;;;;;;49.65;23.77;;;-5.00;99.90;;;;;;5071454;28;20024;-78
2023/11/30 01:51:26;;;;;;;51.85;25.80;;;-5.00;99.90;;;;;;5072453;28;20025;-78
2023/11/30 01:53:53;;;;;;;58.83;26.67;;;-5.10;99.90;;;;;;5071452;28;20024;-78
2023/11/30 01:56:20;;;;;;;48.75;23.65;;;-5.10;99.90;;;;;;5072435;28;20025;-75
2023/11/30 01:58:47;;;;;;;47.80;24.58;;;-5.20;99.90;;;;;;5071577;28;20039;-76
2023/11/30 02:01:13;;;;;;;54.58;26.40;;;-5.20;99.90;;;;;;5072198;28;20036;-78
2023/11/30 02:03:39;;;;;;;60.38;29.25;;;-5.30;99.90;;;;;;5071386;28;20470;-75
2023/11/30 02:06:05;;;;;;;69.57;31.05;;;-5.40;99.90;;;;;;5071266;28;20036;-75
2023/11/30 02:08:31;;;;;;;66.70;30.77;;;-5.50;99.90;;;;;;5072725;28;20450;-78
2023/11/30 02:10:57;;;;;;;85.00;33.72;;;-5.60;99.90;;;;;;5071312;28;20071;-75
2023/11/30 02:13:25;;;;;;;80.95;36.95;;;-5.70;99.90;;;;;;5071085;28;20410;-75
2023/11/30 02:15:51;;;;;;;83.05;36.60;;;-5.80;99.90;;;;;;5072500;28;20044;-75
2023/11/30 02:18:17;;;;;;;87.50;39.85;;;-5.80;99.90;;;;;;5071185;28;20055;-78
2023/11/30 02:20:43;;;;;;;87.78;40.60;;;-5.90;99.90;;;;;;5072267;28;20032;-78
2023/11/30 02:23:09;;;;;;;81.28;37.83;;;-6.00;99.90;;;;;;5072241;28;20025;-78
2023/11/30 02:25:34;;;;;;;79.30;36.83;;;-6.00;99.90;;;;;;5072160;28;20432;-78
2023/11/30 02:28:00;;;;;;;86.85;40.25;;;-6.00;99.90;;;;;;5072457;28;20025;-79
2023/11/30 02:30:25;;;;;;;82.68;38.60;;;-6.00;99.90;;;;;;5072185;28;20032;-78
2023/11/30 02:32:51;;;;;;;70.13;32.55;;;-6.10;99.90;;;;;;5070978;28;20037;-76
2023/11/30 02:35:17;;;;;;;68.60;32.85;;;-6.10;99.90;;;;;;5070744;28;20397;-75
2023/11/30 02:37:43;;;;;;;74.38;33.60;;;-6.00;99.90;;;;;;5072403;28;20020;-75
2023/11/30 02:40:09;;;;;;;50.80;23.73;;;-6.10;99.90;;;;;;5072014;28;20036;-79
2023/11/30 02:42:35;;;;;;;53.60;23.17;;;-6.10;99.90;;;;;;5072102;28;20021;-78
2023/11/30 02:45:00;;;;;;;41.00;21.65;;;-6.10;99.90;;;;;;5070779;28;20493;-76
2023/11/30 02:47:26;;;;;;;46.35;21.45;;;-6.10;99.90;;;;;;5073234;28;20386;-79
2023/11/30 02:49:52;;;;;;;51.67;24.52;;;-6.10;99.90;;;;;;5074791;28;20174;-76
2023/11/30 02:52:17;;;;;;;56.33;24.05;;;-6.10;99.90;;;;;;5063140;28;20032;-75
2023/11/30 02:54:43;;;;;;;55.33;26.60;;;-6.20;99.90;;;;;;5076423;28;20027;-78
2023/11/30 02:57:09;;;;;;;55.25;27.15;;;-6.20;99.90;;;;;;5076163;28;20021;-78
2023/11/30 02:59:34;;;;;;;52.00;25.23;;;-6.30;99.90;;;;;;5075850;28;20036;-78
2023/11/30 03:02:00;;;;;;;50.10;24.50;;;-6.30;99.90;;;;;;5074619;28;20020;-75
2023/11/30 03:04:26;;;;;;;57.40;26.40;;;-6.30;99.90;;;;;;5075481;28;20020;-75
2023/11/30 03:06:51;;;;;;;49.90;26.27;;;-6.30;99.90;;;;;;5075949;28;20040;-78
2023/11/30 03:09:18;;;;;;;55.30;28.17;;;-6.40;99.90;;;;;;5072448;28;20131;-75
2023/11/30 03:11:43;;;;;;;57.95;25.90;;;-6.40;99.90;;;;;;5074520;28;20017;-78
2023/11/30 03:14:09;;;;;;;56.72;25.77;;;-6.50;99.90;;;;;;5074282;28;20021;-75
2023/11/30 03:16:36;;;;;;;59.67;27.98;;;-6.50;99.90;;;;;;5075484;28;20027;-75
2023/11/30 03:19:01;;;;;;;63.35;27.38;;;-6.40;99.90;;;;;;5074463;28;20020;-78
2023/11/30 03:21:29;;;;;;;58.78;26.20;;;-6.50;99.90;;;;;;5075218;28;20051;-78
2023/11/30 03:23:54;;;;;;;41.03;20.52;;;-6.50;99.90;;;;;;5074059;28;20020;-78
2023/11/30 03:26:21;;;;;;;41.92;20.02;;;-6.50;99.90;;;;;;5075428;28;20074;-76
2023/11/30 03:28:47;;;;;;;37.92;17.23;;;-6.50;99.90;;;;;;5074045;28;20115;-78
2023/11/30 03:31:13;;;;;;;39.97;18.77;;;-6.50;99.90;;;;;;5073744;28;20020;-78
2023/11/30 03:33:39;;;;;;;36.47;17.58;;;-6.50;99.90;;;;;;5073897;28;20024;-76
2023/11/30 03:36:05;;;;;;;42.55;19.13;;;-6.50;99.90;;;;;;5074152;28;20012;-78
2023/11/30 03:38:32;;;;;;;41.22;21.83;;;-6.50;99.90;;;;;;5075089;28;20440;-75
2023/11/30 03:40:58;;;;;;;44.75;21.27;;;-6.50;99.90;;;;;;5073829;28;20078;-78
2023/11/30 03:43:24;;;;;;;42.42;21.38;;;-6.50;99.90;;;;;;5075042;28;20108;-78
2023/11/30 03:45:49;;;;;;;48.90;23.25;;;-6.40;99.90;;;;;;5073873;28;20017;-75
2023/11/30 03:48:15;;;;;;;48.13;24.40;;;-6.40;99.90;;;;;;5074284;28;20135;-75
2023/11/30 03:50:42;;;;;;;49.63;23.55;;;-6.40;99.90;;;;;;5074121;28;20059;-75
2023/11/30 03:53:08;;;;;;;62.42;27.63;;;-6.40;99.90;;;;;;5074632;28;20074;-75
2023/11/30 03:55:34;;;;;;;50.70;23.73;;;-6.40;99.90;;;;;;5073784;28;20424;-78
2023/11/30 03:58:00;;;;;;;58.25;27.95;;;-6.30;99.90;;;;;;5074359;28;20023;-75
2023/11/30 04:00:25;;;;;;;55.47;26.20;;;-6.30;99.90;;;;;;5073675;28;20111;-76
2023/11/30 04:02:51;;;;;;;52.70;27.75;;;-6.20;99.90;;;;;;5073390;28;20017;-77
2023/11/30 04:05:17;;;;;;;54.17;26.17;;;-6.20;99.90;;;;;;5074737;28;20482;-78
2023/11/30 04:07:43;;;;;;;58.80;28.55;;;-6.20;99.90;;;;;;5073082;28;20032;-76
2023/11/30 04:10:12;;;;;;;62.80;30.77;;;-6.10;99.90;;;;;;5073306;28;20036;-77
2023/11/30 04:12:38;;;;;;;65.38;35.03;;;-6.00;99.90;;;;;;5074725;28;20029;-75
2023/11/30 04:15:05;;;;;;;76.47;37.22;;;-6.00;99.90;;;;;;5074659;28;20029;-78
2023/11/30 04:17:31;;;;;;;69.53;33.10;;;-5.90;99.90;;;;;;5074548;28;20016;-78
2023/11/30 04:19:57;;;;;;;64.95;28.95;;;-5.90;99.90;;;;;;5073218;28;20033;-78
2023/11/30 04:22:23;;;;;;;59.15;28.63;;;-5.80;99.90;;;;;;5072815;28;20081;-75
2023/11/30 04:24:48;;;;;;;44.88;24.05;;;-5.70;99.90;;;;;;5074576;28;20062;-78
2023/11/30 04:27:14;;;;;;;61.22;27.95;;;-5.50;99.90;;;;;;5072861;28;20044;-75
2023/11/30 04:29:40;;;;;;;55.85;26.65;;;-5.40;99.90;;;;;;5073012;28;20016;-78
2023/11/30 04:32:06;;;;;;;66.88;26.92;;;-5.30;99.90;;;;;;5073723;28;20052;-75
2023/11/30 04:34:32;;;;;;;50.83;25.15;;;-5.20;99.90;;;;;;5074299;28;20040;-75
2023/11/30 04:36:57;;;;;;;54.03;24.15;;;-5.10;99.90;;;;;;5073815;28;20028;-75
2023/11/30 04:39:24;;;;;;;57.40;26.17;;;-5.00;99.90;;;;;;5072856;28;20021;-75
2023/11/30 04:41:51;;;;;;;52.63;27.90;;;-4.90;99.90;;;;;;5073837;28;20063;-75
2023/11/30 04:44:16;;;;;;;58.65;28.98;;;-4.80;99.90;;;;;;5073877;28;20016;-78
2023/11/30 04:46:42;;;;;;;50.03;26.65;;;-4.80;99.90;;;;;;5073862;28;20039;-78
2023/11/30 04:49:09;;;;;;;54.67;25.10;;;-4.70;99.90;;;;;;5072718;28;20058;-78
2023/11/30 04:51:35;;;;;;;66.72;30.17;;;-4.60;99.90;;;;;;5072563;28;20021;-75
2023/11/30 04:54:01;;;;;;;61.47;30.40;;;-4.60;99.90;;;;;;5072654;28;20466;-78
2023/11/30 04:56:27;;;;;;;63.25;32.38;;;-4.50;99.90;;;;;;5072188;28;20535;-78
2023/11/30 04:58:53;;;;;;;61.75;29.02;;;-4.50;99.90;;;;;;5073583;28;20020;-75
2023/11/30 05:01:18;;;;;;;54.78;27.65;;;-4.40;99.90;;;;;;5073346;28;20456;-76
2023/11/30 05:03:44;;;;;;;55.22;26.55;;;-4.40;99.90;;;;;;5072245;28;20020;-79
2023/11/30 05:06:10;;;;;;;74.63;36.03;;;-4.30;99.90;;;;;;5073575;28;20021;-79
2023/11/30 05:08:35;;;;;;;72.43;36.92;;;-4.30;99.90;;;;;;5073521;28;20024;-79
2023/11/30 05:11:01;;;;;;;75.72;37.25;;;-4.20;99.90;;;;;;5072892;28;20021;-79
2023/11/30 05:13:27;;;;;;;71.40;34.72;;;-4.20;99.90;;;;;;5073231;28;20099;-79
2023/11/30 05:15:53;;;;;;;91.88;40.13;;;-4.10;99.90;;;;;;5071967;28;20056;-75
2023/11/30 05:18:18;;;;;;;165.63;67.18;;;-4.10;99.90;;;;;;5073184;28;20029;-77
2023/11/30 05:20:44;;;;;;;120.63;53.17;;;-4.10;99.90;;;;;;5071935;28;20440;-75
2023/11/30 05:23:10;;;;;;;132.77;62.33;;;-4.00;99.90;;;;;;5073061;28;20016;-77
2023/11/30 05:25:35;;;;;;;101.78;44.92;;;-4.00;99.90;;;;;;5071385;28;20507;-75
2023/11/30 05:28:02;;;;;;;95.13;47.60;;;-4.00;99.90;;;;;;5072000;28;20020;-78
2023/11/30 05:30:28;;;;;;;69.43;35.08;;;-4.00;99.90;;;;;;5072772;28;20021;-75
2023/11/30 05:32:53;;;;;;;65.25;33.00;;;-3.90;99.90;;;;;;5071971;28;20066;-79
2023/11/30 05:35:19;;;;;;;81.65;38.35;;;-3.90;99.90;;;;;;5072922;28;20021;-76
2023/11/30 05:37:46;;;;;;;104.93;48.65;;;-3.90;99.90;;;;;;5073121;28;20096;-76
2023/11/30 05:40:12;;;;;;;93.68;42.15;;;-3.90;99.90;;;;;;5072904;28;20021;-75
2023/11/30 05:42:38;;;;;;;135.65;63.03;;;-3.90;99.90;;;;;;5071709;28;20234;-76
2023/11/30 05:45:04;;;;;;;130.23;57.88;;;-3.90;99.90;;;;;;5074249;28;20385;-76
2023/11/30 05:47:30;;;;;;;85.45;44.42;;;-3.90;99.90;;;;;;5071386;28;20020;-76
2023/11/30 05:49:56;;;;;;;79.07;40.53;;;-3.90;99.90;;;;;;5071429;28;20025;-76
2023/11/30 05:52:22;;;;;;;76.80;39.75;;;-4.00;99.90;;;;;;5072783;28;20390;-79
2023/11/30 05:54:48;;;;;;;64.57;34.92;;;-4.00;99.90;;;;;;5072430;28;20028;-79
2023/11/30 05:57:14;;;;;;;70.68;35.58;;;-4.00;99.90;;;;;;5071507;28;20020;-79
2023/11/30 05:59:39;;;;;;;73.50;33.80;;;-4.00;99.90;;;;;;5072364;28;20029;-78
2023/11/30 06:02:05;;;;;;;62.80;33.05;;;-4.00;99.90;;;;;;5072704;28;20052;-79
2023/11/30 06:04:32;;;;;;;71.25;34.38;;;-4.10;99.90;;;;;;5072410;28;20062;-78
2023/11/30 06:06:58;;;;;;;60.28;29.55;;;-4.10;99.90;;;;;;5071409;28;20016;-78
2023/11/30 06:09:24;;;;;;;65.53;30.60;;;-4.10;99.90;;;;;;5072416;28;20118;-78
2023/11/30 06:11:52;;;;;;;54.60;28.45;;;-4.10;99.90;;;;;;5072636;28;20389;-75
2023/11/30 06:14:17;;;;;;;54.30;28.38;;;-4.10;99.90;;;;;;5072300;28;20024;-75
2023/11/30 06:16:43;;;;;;;57.10;28.58;;;-4.10;99.90;;;;;;5072537;28;20027;-75
2023/11/30 06:19:09;;;;;;;72.40;30.35;;;-4.10;99.90;;;;;;5070851;28;20021;-75
2023/11/30 06:21:36;;;;;;;63.72;32.95;;;-4.10;99.90;;;;;;5071116;28;20500;-78
2023/11/30 06:24:02;;;;;;;67.97;34.70;;;-4.10;99.90;;;;;;5074958;28;20021;-75
2023/11/30 06:26:28;;;;;;;87.20;45.83;;;-4.10;99.90;;;;;;5076576;28;20524;-78
2023/11/30 06:28:53;;;;;;;100.75;50.38;;;-4.00;99.90;;;;;;5076455;28;20059;-78
2023/11/30 06:31:19;;;;;;;116.70;55.45;;;-4.10;99.90;;;;;;5076447;28;20025;-75
2023/11/30 06:33:45;;;;;;;115.50;54.75;;;-4.00;99.90;;;;;;5076285;28;20035;-79
2023/11/30 06:36:11;;;;;;;96.47;47.85;;;-4.00;99.90;;;;;;5075244;28;20073;-78
2023/11/30 06:38:36;;;;;;;89.70;45.97;;;-3.90;99.90;;;;;;5076178;28;20095;-75
2023/11/30 06:41:10;;;;;;;110.00;51.60;;;-3.80;99.90;;;;;;5074966;28;20234;-78
2023/11/30 06:43:36;;;;;;;104.50;48.05;;;-3.80;99.90;;;;;;5074802;28;20031;-79
2023/11/30 06:46:01;;;;;;;103.72;53.78;;;-3.70;99.90;;;;;;5074917;28;20016;-78
2023/11/30 06:48:27;;;;;;;140.18;59.70;;;-3.70;99.90;;;;;;5074581;28;20111;-79
2023/11/30 06:50:53;;;;;;;182.20;75.63;;;-3.60;99.90;;;;;;5075862;28;20033;-75
2023/11/30 06:53:19;;;;;;;189.75;75.20;;;-3.60;99.90;;;;;;5074110;28;20078;-75
2023/11/30 06:55:44;;;;;;;169.35;72.13;;;-3.60;99.90;;;;;;5074947;28;20033;-79
2023/11/30 06:58:10;;;;;;;179.48;75.72;;;-3.60;99.90;;;;;;5073769;28;20017;-79
2023/11/30 07:00:36;;;;;;;174.25;72.80;;;-3.50;99.90;;;;;;5070795;28;20028;-79
2023/11/30 07:03:01;;;;;;;148.98;67.07;;;-3.50;99.90;;;;;;5072815;28;20029;-78
2023/11/30 07:05:27;;;;;;;135.38;63.85;;;-3.50;99.90;;;;;;5075466;28;20020;-78
2023/11/30 07:07:52;;;;;;;140.95;61.20;;;-3.50;99.90;;;;;;5075154;28;20052;-79
2023/11/30 07:10:18;;;;;;;135.23;61.45;;;-3.40;99.90;;;;;;5074247;28;20561;-76
2023/11/30 07:12:45;;;;;;;129.90;60.35;;;-3.40;99.90;;;;;;5073853;28;20032;-76
2023/11/30 07:15:11;;;;;;;108.70;54.22;;;-3.30;99.90;;;;;;5075006;28;20039;-76
2023/11/30 07:17:37;;;;;;;108.88;54.78;;;-3.30;99.90;;;;;;5073466;28;20477;-79
2023/11/30 07:20:03;;;;;;;92.53;46.97;;;-3.20;99.90;;;;;;5073364;28;20140;-76
2023/11/30 07:22:30;;;;;;;66.82;36.17;;;-3.20;99.90;;;;;;5073521;28;20033;-79
2023/11/30 07:24:56;;;;;;;79.90;43.03;;;-3.10;99.90;;;;;;5070081;28;20087;-79
2023/11/30 07:27:22;;;;;;;77.95;44.17;;;-3.10;99.90;;;;;;5071315;28;20044;-77
2023/11/30 07:29:48;;;;;;;88.35;42.05;;;-2.90;99.90;;;;;;5075257;28;20016;-79
2023/11/30 07:32:18;;;;;;;92.75;43.33;;;-2.90;99.90;;;;;;5073084;28;20036;-79
2023/11/30 07:34:44;;;;;;;100.80;47.28;;;-2.80;99.90;;;;;;5073214;28;20104;-79
2023/11/30 07:37:10;;;;;;;105.75;49.97;;;-2.80;99.90;;;;;;5074915;28;20020;-78
2023/11/30 07:39:36;;;;;;;122.90;53.97;;;-2.80;99.90;;;;;;5075185;28;20024;-77
2023/11/30 07:42:03;;;;;;;121.75;52.92;;;-2.70;99.90;;;;;;5069335;28;20035;-79
2023/11/30 07:44:29;;;;;;;106.00;47.28;;;-2.70;99.90;;;;;;5065191;28;20108;-76
2023/11/30 07:46:55;;;;;;;94.50;44.78;;;-2.60;99.90;;;;;;5072786;28;20108;-79
2023/11/30 07:49:21;;;;;;;85.25;39.72;;;-2.60;99.90;;;;;;5073248;28;20036;-76
2023/11/30 07:51:46;;;;;;;90.72;40.13;;;-2.50;99.90;;;;;;5074101;28;20106;-79
2023/11/30 07:54:13;;;;;;;94.78;45.30;;;-2.40;99.90;;;;;;5073357;28;20033;-79
2023/11/30 07:56:38;;;;;;;123.90;53.97;;;-2.40;99.90;;;;;;5074728;28;20013;-76
2023/11/30 07:59:04;;;;;;;112.22;50.53;;;-2.30;99.90;;;;;;5065491;28;20108;-79
2023/11/30 08:01:30;;;;;;;105.00;50.30;;;-2.20;99.90;;;;;;5071387;28;20127;-76
2023/11/30 08:03:56;;;;;;;90.53;44.05;;;-2.10;99.90;;;;;;5072960;28;20017;-76
2023/11/30 08:06:22;;;;;;;109.63;49.25;;;-2.00;99.90;;;;;;5073077;28;20074;-76
2023/11/30 08:08:47;;;;;;;95.45;43.10;;;-1.90;99.90;;;;;;5072131;28;20046;-76
2023/11/30 08:11:14;;;;;;;76.88;38.22;;;-1.80;99.90;;;;;;5071646;28;20086;-77
2023/11/30 08:13:40;;;;;;;80.85;39.33;;;-1.60;99.90;;;;;;5065765;28;20051;-76
2023/11/30 08:16:07;;;;;;;75.03;35.63;;;-1.40;99.90;;;;;;5074118;28;20020;-77
2023/11/30 08:18:34;;;;;;;71.68;33.05;;;-1.30;99.90;;;;;;5073737;28;20070;-77
2023/11/30 08:21:02;;;;;;;66.32;31.98;;;-1.20;99.90;;;;;;5061980;28;20033;-77
2023/11/30 08:23:28;;;;;;;65.65;33.58;;;-1.00;99.90;;;;;;5071778;28;20113;-77
2023/11/30 08:25:53;;;;;;;65.13;31.63;;;-0.90;99.90;;;;;;5072380;28;20016;-77
2023/11/30 08:28:20;;;;;;;57.38;31.67;;;-0.60;99.90;;;;;;5073232;28;20043;-78
2023/11/30 08:30:46;;;;;;;62.67;31.27;;;-0.40;99.90;;;;;;5071900;28;20385;-77
2023/11/30 08:33:11;;;;;;;58.92;30.23;;;-0.30;99.90;;;;;;5072025;28;20254;-78
2023/11/30 08:35:37;;;;;;;68.15;31.58;;;-0.20;99.90;;;;;;5069566;28;20551;-77
2023/11/30 08:38:04;;;;;;;63.17;31.52;;;0.00;99.90;;;;;;5069608;28;20059;-75
2023/11/30 08:40:30;;;;;;;77.25;34.63;;;0.10;99.90;;;;;;5071325;28;20591;-75
2023/11/30 08:42:55;;;;;;;63.45;31.17;;;0.30;99.90;;;;;;5070076;28;20021;-76
2023/11/30 08:45:21;;;;;;;56.97;29.75;;;0.40;99.90;;;;;;5068062;28;20023;-75
2023/11/30 08:47:47;;;;;;;58.28;27.88;;;0.40;99.90;;;;;;5068727;28;21404;-75
2023/11/30 08:50:14;;;;;;;52.53;25.75;;;0.30;99.90;;;;;;5070050;28;20508;-75
2023/11/30 08:52:40;;;;;;;52.10;25.95;;;0.20;99.90;;;;;;5070065;28;20028;-76
2023/11/30 08:55:06;;;;;;;50.75;26.10;;;0.10;99.90;;;;;;5068732;28;20424;-76
2023/11/30 08:57:31;;;;;;;60.88;27.73;;;0.20;99.90;;;;;;5069783;28;20035;-76
2023/11/30 08:59:57;;;;;;;61.15;28.80;;;0.20;99.90;;;;;;5070264;28;20025;-76
2023/11/30 09:02:24;;;;;;;54.90;27.55;;;0.30;99.90;;;;;;5070990;28;20106;-76
2023/11/30 09:04:51;;;;;;;54.55;30.20;;;0.40;99.90;;;;;;5071176;28;20044;-76
2023/11/30 09:07:17;;;;;;;57.65;28.98;;;0.40;99.90;;;;;;5071370;28;20013;-75
2023/11/30 09:09:44;;;;;;;55.05;28.63;;;0.50;99.90;;;;;;5073323;28;20030;-76
2023/11/30 09:12:10;;;;;;;49.70;26.75;;;0.60;99.90;;;;;;5071702;28;20499;-76
2023/11/30 09:14:36;;;;;;;47.42;25.25;;;0.70;99.90;;;;;;5071538;28;20029;-76
2023/11/30 09:17:04;;;;;;;49.47;27.20;;;0.80;99.90;;;;;;5071932;28;20111;-76
2023/11/30 09:19:29;;;;;;;51.50;26.17;;;0.90;99.90;;;;;;5071510;28;20021;-75
2023/11/30 09:21:55;;;;;;;55.40;27.10;;;1.00;99.90;;;;;;5072959;28;20402;-75
2023/11/30 09:24:21;;;;;;;44.65;25.33;;;1.00;99.90;;;;;;5071094;28;20024;-75
2023/11/30 09:26:51;;;;;;;43.80;23.48;;;1.10;99.90;;;;;;5070789;28;20024;-76
2023/11/30 09:29:17;;;;;;;39.65;20.70;;;1.10;99.90;;;;;;5071196;28;20031;-76
2023/11/30 09:31:43;;;;;;;39.05;21.77;;;1.10;99.90;;;;;;5070990;28;20079;-75
2023/11/30 09:34:11;;;;;;;36.05;20.42;;;1.10;99.90;;;;;;5070626;28;20070;-75
2023/11/30 09:36:38;;;;;;;40.13;21.25;;;1.10;99.90;;;;;;5059948;28;20166;-74
2023/11/30 09:39:05;;;;;;;38.85;21.20;;;1.20;99.90;;;;;;5069292;28;20378;-75
2023/11/30 09:41:31;;;;;;;42.03;22.48;;;1.30;99.90;;;;;;5071849;28;20115;-76
2023/11/30 09:43:56;;;;;;;37.08;18.83;;;1.40;99.90;;;;;;5070773;28;20074;-76
2023/11/30 09:46:22;;;;;;;190.73;61.40;;;1.40;99.90;;;;;;5071086;28;20042;-76
2023/11/30 09:48:48;;;;;;;80.03;31.77;;;1.30;99.90;;;;;;5066520;28;20983;-77
2023/11/30 09:51:20;;;;;;;75.07;30.33;;;1.40;99.90;;;;;;5061448;28;20036;-77
2023/11/30 09:53:46;;;;;;;66.05;28.55;;;1.40;99.90;;;;;;5069891;28;20454;-77
2023/11/30 09:56:14;;;;;;;67.30;26.50;;;1.40;99.90;;;;;;5070333;28;20119;-76
2023/11/30 09:58:42;;;;;;;46.17;21.65;;;1.40;99.90;;;;;;5070770;28;20017;-76
2023/11/30 10:01:08;;;;;;;26.98;15.45;;;1.40;99.90;;;;;;5071402;28;20127;-76
2023/11/30 10:03:34;;;;;;;37.88;19.35;;;1.30;99.90;;;;;;5081806;28;20067;-76
2023/11/30 10:06:01;;;;;;;31.77;18.05;;;1.30;99.90;;;;;;5072697;28;20099;-77
2023/11/30 10:08:27;;;;;;;44.22;24.38;;;1.30;99.90;;;;;;5068668;28;20028;-76
2023/11/30 10:10:54;;;;;;;105.80;49.33;;;1.30;99.90;;;;;;5071061;28;20025;-76
2023/11/30 10:13:20;;;;;;;98.72;45.70;;;1.20;99.90;;;;;;5070794;28;20074;-77
2023/11/30 10:15:45;;;;;;;77.53;36.47;;;1.20;99.90;;;;;;5069815;28;20032;-76
2023/11/30 10:18:12;;;;;;;125.00;51.20;;;1.30;99.90;;;;;;5072018;28;20032;-76
2023/11/30 10:20:37;;;;;;;46.83;23.02;;;1.20;99.90;;;;;;5069285;28;20082;-76
2023/11/30 10:23:10;;;;;;;216.27;81.70;;;1.20;99.90;;;;;;5070303;28;20454;-76
2023/11/30 10:25:37;;;;;;;;;;;1.20;99.90;;;;;;5072115;28;20070;-76
2023/11/30 10:28:03;;;;;;;61.97;27.98;;;1.30;99.90;;;;;;5071961;28;20421;-76
2023/11/30 10:30:31;;;;;;;52.50;25.23;;;1.20;99.90;;;;;;5070235;28;20077;-76
2023/11/30 10:33:00;;;;;;;41.15;20.42;;;1.30;99.90;;;;;;5069781;28;20041;-76
2023/11/30 10:35:29;;;;;;;34.83;18.13;;;1.30;99.90;;;;;;5070775;28;20047;-77
2023/11/30 10:37:57;;;;;;;60.72;25.80;;;1.30;99.90;;;;;;5071354;28;20040;-75
2023/11/30 10:40:25;;;;;;;58.25;26.77;;;1.30;99.90;;;;;;5070258;28;20017;-75
2023/11/30 10:42:51;;;;;;;51.35;24.73;;;1.30;99.90;;;;;;5070649;28;20028;-75
2023/11/30 10:45:18;;;;;;;76.90;31.92;;;1.30;99.90;;;;;;5071604;28;20043;-75
2023/11/30 10:47:45;;;;;;;78.68;32.15;;;1.40;99.30;;;;;;5071906;28;20017;-75
2023/11/30 10:50:14;;;;;;;90.00;41.67;;;1.40;97.30;;;;;;5069908;28;20098;-75
2023/11/30 10:52:43;;;;;;;45.67;20.58;;;1.40;97.00;;;;;;5070094;28;20025;-76
2023/11/30 10:55:19;;;;;;;51.10;22.75;;;1.40;94.80;;;;;;5067219;28;20032;-76
2023/11/30 10:57:46;;;;;;;37.95;17.75;;;1.40;94.50;;;;;;5070667;28;20040;-75
2023/11/30 11:00:13;;;;;;;23.20;13.18;;;1.40;95.30;;;;;;5071829;28;20038;-76
2023/11/30 11:02:43;;;;;;;23.30;12.77;;;1.30;94.60;;;;;;5071242;28;20044;-76
2023/11/30 11:05:12;;;;;;;47.17;19.98;;;1.30;95.70;;;;;;5067370;28;20018;-76
2023/11/30 11:07:48;;;;;;;108.97;50.97;;;1.30;95.30;;;;;;5070052;28;20107;-76
2023/11/30 11:10:24;;;;;;;237.00;88.78;;;1.30;94.70;;;;;;5067992;28;20059;-76
2023/11/30 11:12:51;;;;;;;209.52;79.90;;;1.30;93.50;;;;;;5073008;28;20428;-76
2023/11/30 11:15:22;;;;;;;56.47;24.02;;;1.30;93.80;;;;;;5074062;28;20478;-75
2023/11/30 11:17:53;;;;;;;42.28;18.58;;;1.30;94.00;;;;;;5073417;28;20559;-75
2023/11/30 11:20:24;;;;;;;147.23;49.53;;;1.30;93.60;;;;;;5073542;28;20016;-75
2023/11/30 11:22:57;;;;;;;138.13;48.75;;;1.30;92.10;;;;;;5074676;28;20460;-75
2023/11/30 11:25:23;;;;;;;;;;;1.30;92.20;;;;;;5073484;28;20116;-76
2023/11/30 11:27:49;;;;;;;40.15;15.68;;;1.30;92.30;;;;;;5073862;28;19953;-75
2023/11/30 11:30:15;;;;;;;33.38;18.00;;;1.30;90.50;;;;;;5074851;28;20025;-78
2023/11/30 11:32:42;;;;;;;339.48;110.20;;;1.30;89.40;;;;;;5073941;28;20045;-79
2023/11/30 11:35:09;;;;;;;140.77;51.20;;;1.30;89.00;;;;;;5068236;28;20668;-79
2023/11/30 11:37:35;;;;;;;88.80;29.85;;;1.30;89.60;;;;;;5073903;28;20040;-78
2023/11/30 11:40:01;;;;;;;317.35;123.20;;;1.40;89.90;;;;;;5074587;28;20102;-79
2023/11/30 11:42:27;;;;;;;46.63;20.33;;;1.30;88.70;;;;;;5074510;28;20498;-79
2023/11/30 11:44:53;;;;;;;106.13;36.38;;;1.30;87.90;;;;;;5069751;28;20067;-79
2023/11/30 11:47:21;;;;;;;52.90;20.13;;;1.30;88.60;;;;;;5073773;28;20432;-79
2023/11/30 11:49:49;;;;;;;59.10;23.45;;;1.30;89.30;;;;;;5072671;28;20020;-79
2023/11/30 11:52:19;;;;;;;44.75;19.60;;;1.30;89.60;;;;;;5074535;28;20466;-79
2023/11/30 11:54:45;;;;;;;23.48;12.98;;;1.40;91.60;;;;;;5073879;28;20449;-79
2023/11/30 11:57:11;;;;;;;38.55;15.48;;;1.40;93.10;;;;;;5073064;28;20020;-79
2023/11/30 11:59:36;;;;;;;30.75;15.90;;;1.40;92.80;;;;;;5072058;28;20020;-79
2023/11/30 12:02:03;;;;;;;28.58;15.20;;;1.40;93.60;;;;;;5073152;28;20037;-79
2023/11/30 12:04:29;;;;;;;29.60;15.27;;;1.40;95.30;;;;;;5073733;28;20074;-79
2023/11/30 12:06:56;;;;;;;24.23;13.05;;;1.50;96.40;;;;;;5073978;28;20021;-79
2023/11/30 12:09:22;;;;;;;29.63;14.20;;;1.40;95.60;;;;;;5067132;28;20071;-79
2023/11/30 12:11:47;;;;;;;22.33;12.02;;;1.50;95.20;;;;;;5070961;28;20439;-79
2023/11/30 12:14:15;;;;;;;35.47;16.25;;;1.50;94.90;;;;;;5068657;28;20028;-79
2023/11/30 12:16:42;;;;;;;56.22;24.00;;;1.50;94.60;;;;;;5067399;28;20048;-78
2023/11/30 12:19:08;;;;;;;31.60;16.95;;;1.50;94.40;;;;;;5063342;28;20069;-78
2023/11/30 12:21:35;;;;;;;26.77;12.63;;;1.50;94.50;;;;;;5059029;28;20056;-78
2023/11/30 12:24:02;;;;;;;33.95;16.40;;;1.50;93.80;;;;;;5059405;28;20033;-79